createdAt,value
2022-08-16T00:04:10.288Z,5.55
2022-08-16T00:06:39.350Z,2.90
2022-08-16T00:09:07.615Z,3.42
2022-08-16T00:11:41.776Z,3.70
2022-08-16T00:14:14.709Z,3.13
2022-08-16T00:17:01.177Z,2.80
2022-08-16T00:19:41.351Z,2.78
2022-08-16T00:22:13.426Z,3.50
2022-08-16T00:24:44.626Z,3.75
2022-08-16T00:27:14.947Z,2.78
2022-08-16T00:29:43.037Z,3.72
2022-08-16T00:32:18.189Z,2.60
2022-08-16T00:34:52.979Z,2.95
2022-08-16T00:37:57.237Z,2.78
2022-08-16T00:43:19.022Z,5.63
2022-08-16T00:45:58.539Z,3.63
2022-08-16T00:48:43.683Z,3.55
2022-08-16T00:51:17.307Z,2.58
2022-08-16T00:53:46.633Z,4.93
2022-08-16T00:56:55.957Z,1.53
2022-08-16T00:59:32.979Z,1.50
2022-08-16T01:02:30.471Z,1.17
2022-08-16T01:05:14.897Z,2.22
2022-08-16T01:07:57.145Z,1.38
2022-08-16T01:10:35.263Z,1.80
2022-08-16T01:13:12.318Z,2.65
2022-08-16T01:15:53.668Z,2.20
2022-08-16T01:18:39.346Z,2.22
2022-08-16T01:21:53.428Z,2.83
2022-08-16T01:24:53.456Z,1.98
2022-08-16T01:27:39.198Z,1.35
2022-08-16T01:30:20.172Z,1.48
2022-08-16T01:33:01.559Z,1.73
2022-08-16T01:36:12.086Z,1.20
2022-08-16T01:38:49.239Z,1.38
2022-08-16T01:41:32.188Z,1.60
2022-08-16T01:44:03.311Z,1.38
2022-08-16T01:46:46.488Z,1.45
2022-08-16T01:50:41.069Z,1.88
2022-08-16T01:52:31.539Z,1.92
2022-08-16T01:55:16.936Z,1.60
2022-08-16T01:57:53.478Z,1.73
2022-08-16T02:00:28.805Z,1.80
2022-08-16T02:02:58.710Z,2.22
2022-08-16T02:05:30.462Z,1.80
2022-08-16T02:08:02.814Z,1.50
2022-08-16T02:10:34.050Z,2.08
2022-08-16T02:13:07.738Z,1.35
2022-08-16T02:15:42.383Z,2.70
2022-08-16T02:18:13.381Z,2.63
2022-08-16T02:20:56.423Z,1.63
2022-08-16T02:23:44.123Z,2.58
2022-08-16T02:26:38.793Z,1.67
2022-08-16T02:29:13.073Z,2.50
2022-08-16T02:32:03.361Z,2.17
2022-08-16T02:34:40.384Z,1.80
2022-08-16T02:37:10.709Z,1.73
2022-08-16T02:39:40.068Z,1.98
2022-08-16T02:42:28.046Z,1.60
2022-08-16T02:45:00.249Z,2.88
2022-08-16T02:47:31.863Z,1.33
2022-08-16T02:51:04.102Z,3.10
2022-08-16T02:53:13.942Z,1.42
2022-08-16T02:55:46.639Z,1.70
2022-08-16T02:58:24.764Z,1.38
2022-08-16T03:00:57.296Z,1.20
2022-08-16T03:04:40.996Z,1.52
2022-08-16T03:06:41.606Z,1.65
2022-08-16T03:09:21.295Z,3.08
2022-08-16T03:12:02.331Z,1.52
2022-08-16T03:14:41.440Z,1.52
2022-08-16T03:17:18.521Z,1.50
2022-08-16T03:19:59.891Z,2.15
2022-08-16T03:22:37.177Z,1.58
2022-08-16T03:25:20.521Z,2.53
2022-08-16T03:27:59.985Z,3.30
2022-08-16T03:30:39.093Z,3.25
2022-08-16T03:33:13.185Z,2.30
2022-08-16T03:35:50.184Z,1.67
2022-08-16T03:38:34.359Z,2.30
2022-08-16T03:41:24.357Z,4.65
2022-08-16T03:43:56.395Z,2.45
2022-08-16T03:46:44.857Z,2.05
2022-08-16T03:49:19.607Z,2.58
2022-08-16T03:51:52.599Z,2.85
2022-08-16T03:54:25.715Z,1.30
2022-08-16T03:57:01.040Z,2.47
2022-08-16T03:59:36.681Z,2.58
2022-08-16T04:02:22.382Z,2.15
2022-08-16T04:04:55.504Z,1.73
2022-08-16T04:07:34.253Z,2.65
2022-08-16T04:10:36.179Z,2.85
2022-08-16T04:12:59.426Z,2.03
2022-08-16T04:15:30.841Z,1.75
2022-08-16T04:18:21.666Z,3.38
2022-08-16T04:20:51.257Z,1.55
2022-08-16T04:23:23.753Z,2.88
2022-08-16T04:25:54.453Z,2.22
2022-08-16T04:28:29.310Z,2.20
2022-08-16T04:31:12.010Z,1.40
2022-08-16T04:33:50.600Z,1.50
2022-08-16T04:36:22.643Z,2.00
2022-08-16T04:38:52.450Z,1.55
2022-08-16T04:41:20.917Z,3.35
2022-08-16T04:44:02.940Z,1.85
2022-08-16T04:47:01.420Z,1.50
2022-08-16T04:49:38.666Z,2.70
2022-08-16T04:52:32.641Z,1.90
2022-08-16T04:55:31.981Z,2.15
2022-08-16T04:58:43.751Z,2.22
2022-08-16T05:00:58.698Z,2.95
2022-08-16T05:03:27.319Z,2.00
2022-08-16T05:05:59.932Z,1.65
2022-08-16T05:08:36.542Z,1.77
2022-08-16T05:11:25.767Z,1.52
2022-08-16T05:14:06.923Z,2.83
2022-08-16T05:16:47.511Z,2.28
2022-08-16T05:19:26.192Z,1.88
2022-08-16T05:22:24.976Z,2.05
2022-08-16T05:25:18.200Z,1.80
2022-08-16T05:34:31.401Z,1.48
2022-08-16T05:37:04.588Z,3.63
2022-08-16T05:39:40.776Z,2.08
2022-08-16T05:42:15.673Z,2.85
2022-08-16T05:44:50.817Z,5.40
2022-08-16T05:47:19.226Z,3.47
2022-08-16T05:49:50.687Z,2.10
2022-08-16T05:52:20.825Z,1.63
2022-08-16T05:55:00.916Z,2.25
2022-08-16T05:57:35.648Z,2.05
2022-08-16T06:02:44.308Z,1.75
2022-08-16T06:05:36.232Z,1.70
2022-08-16T06:08:09.576Z,1.48
2022-08-16T06:11:02.559Z,3.20
2022-08-16T06:13:42.343Z,2.13
2022-08-16T06:16:18.246Z,1.45
2022-08-16T06:18:50.884Z,1.58
2022-08-16T06:21:23.947Z,2.95
2022-08-16T06:24:01.881Z,2.67
2022-08-16T06:26:57.849Z,3.03
2022-08-16T06:29:29.476Z,2.70
2022-08-16T06:31:58.334Z,2.57
2022-08-16T06:34:54.236Z,4.05
2022-08-16T06:37:15.082Z,1.48
2022-08-16T06:39:50.024Z,1.45
2022-08-16T06:42:47.434Z,5.93
2022-08-16T06:46:03.599Z,2.35
2022-08-16T06:49:05.273Z,1.60
2022-08-16T06:51:49.097Z,1.40
2022-08-16T06:55:24.551Z,2.00
2022-08-16T06:58:08.329Z,2.08
2022-08-16T07:04:01.388Z,2.78
2022-08-16T07:06:39.093Z,2.90
2022-08-16T07:09:22.039Z,1.30
2022-08-16T07:12:11.999Z,7.47
2022-08-16T07:15:25.190Z,2.33
2022-08-16T07:18:20.676Z,2.10
2022-08-16T07:21:02.497Z,1.60
2022-08-16T07:23:39.277Z,1.60
2022-08-16T07:26:25.134Z,1.70
2022-08-16T07:28:57.246Z,2.92
2022-08-16T07:31:38.130Z,2.65
2022-08-16T07:34:35.086Z,5.80
2022-08-16T07:40:17.729Z,4.05
2022-08-16T07:42:53.996Z,2.75
2022-08-16T07:45:28.633Z,5.75
2022-08-16T07:48:19.333Z,2.15
2022-08-16T07:50:59.181Z,4.43
2022-08-16T07:53:43.587Z,2.88
2022-08-16T07:56:22.087Z,1.80
2022-08-16T07:59:18.223Z,3.17
2022-08-16T08:01:56.880Z,4.50
2022-08-16T08:04:39.944Z,3.08
2022-08-16T08:07:16.117Z,1.88
2022-08-16T08:09:54.228Z,3.47
2022-08-16T08:12:31.405Z,2.50
2022-08-16T08:15:10.299Z,2.42
2022-08-16T08:17:46.150Z,3.28
2022-08-16T08:20:27.920Z,2.22
2022-08-16T08:23:11.703Z,2.15
2022-08-16T08:25:54.858Z,2.10
2022-08-16T08:28:34.426Z,1.85
2022-08-16T08:31:29.695Z,2.67
2022-08-16T08:34:01.694Z,2.03
2022-08-16T08:39:54.741Z,5.20
2022-08-16T08:42:50.855Z,3.65
2022-08-16T08:45:48.277Z,5.15
2022-08-16T08:48:33.270Z,6.68
2022-08-16T08:51:21.072Z,6.57
2022-08-16T08:53:57.939Z,3.10
2022-08-16T09:00:30.628Z,3.90
2022-08-16T09:03:10.657Z,4.25
2022-08-16T09:06:55.083Z,3.05
2022-08-16T09:09:33.326Z,6.45
2022-08-16T09:12:06.765Z,4.95
2022-08-16T09:14:51.290Z,2.90
2022-08-16T09:17:45.370Z,7.50
2022-08-16T09:20:16.883Z,5.38
2022-08-16T09:22:52.462Z,3.35
2022-08-16T09:25:34.184Z,3.00
2022-08-16T09:28:11.511Z,3.75
2022-08-16T09:30:46.288Z,7.85
2022-08-16T09:33:19.998Z,4.45
2022-08-16T09:35:55.962Z,3.80
2022-08-16T09:38:32.329Z,5.65
2022-08-16T09:41:02.931Z,5.97
2022-08-16T09:46:44.496Z,6.63
2022-08-16T09:49:05.548Z,2.80
2022-08-16T09:54:09.679Z,4.38
2022-08-16T09:56:39.691Z,3.78
2022-08-16T09:59:22.369Z,4.28
2022-08-16T10:01:51.600Z,3.78
2022-08-16T10:04:29.187Z,5.80
2022-08-16T10:07:11.812Z,5.65
2022-08-16T10:12:59.688Z,4.55
2022-08-16T10:15:31.446Z,4.82
2022-08-16T10:18:56.424Z,10.45
2022-08-16T10:22:36.158Z,3.10
2022-08-16T10:28:28.075Z,3.90
2022-08-16T10:31:43.337Z,3.92
2022-08-16T10:34:31.435Z,5.43
2022-08-16T10:37:46.407Z,3.90
2022-08-16T10:41:08.891Z,4.78
2022-08-16T10:43:39.600Z,2.83
2022-08-16T10:46:39.974Z,4.38
2022-08-16T10:49:16.813Z,2.55
2022-08-16T10:52:02.884Z,6.97
2022-08-16T10:55:57.468Z,3.10
2022-08-16T10:58:53.400Z,7.20
2022-08-16T11:11:04.532Z,2.75
2022-08-16T11:16:26.839Z,4.82
2022-08-16T11:19:05.402Z,5.40
2022-08-16T11:21:37.667Z,3.50
2022-08-16T11:24:41.973Z,3.35
2022-08-16T11:27:24.350Z,5.05
2022-08-16T11:30:00.028Z,4.75
2022-08-16T11:32:33.672Z,3.92
2022-08-16T11:35:13.777Z,3.50
2022-08-16T11:38:23.349Z,3.42
2022-08-16T11:40:52.729Z,4.95
2022-08-16T11:43:33.549Z,5.50
2022-08-16T11:46:43.804Z,4.97
2022-08-16T11:48:54.101Z,3.10
2022-08-16T11:51:21.362Z,3.40
2022-08-16T11:53:48.452Z,3.95
2022-08-16T11:56:15.666Z,10.88
2022-08-16T11:58:51.713Z,3.03
2022-08-16T12:01:29.931Z,4.30
2022-08-16T12:04:13.353Z,3.65
2022-08-16T12:06:41.221Z,7.78
2022-08-16T12:09:08.831Z,3.13
2022-08-16T12:11:37.487Z,2.97
2022-08-16T12:14:08.145Z,2.80
2022-08-16T12:16:37.112Z,4.65
2022-08-16T12:19:10.750Z,2.70
2022-08-16T12:21:58.055Z,3.13
2022-08-16T12:24:26.853Z,3.25
2022-08-16T12:26:54.456Z,5.15
2022-08-16T12:29:22.725Z,4.63
2022-08-16T12:31:59.368Z,2.90
2022-08-16T12:34:29.629Z,3.25
2022-08-16T12:36:57.159Z,4.18
2022-08-16T12:39:28.890Z,2.85
2022-08-16T12:41:57.631Z,2.92
2022-08-16T12:44:26.772Z,3.33
2022-08-16T12:47:17.541Z,4.03
2022-08-16T12:49:45.224Z,6.93
2022-08-16T12:52:44.496Z,5.25
2022-08-16T12:55:01.530Z,3.58
2022-08-16T12:57:36.800Z,4.15
2022-08-16T13:00:07.440Z,3.80
2022-08-16T13:02:36.433Z,6.07
2022-08-16T13:05:07.056Z,3.58
2022-08-16T13:07:37.368Z,2.60
2022-08-16T13:10:21.019Z,4.35
2022-08-16T13:13:02.608Z,2.92
2022-08-16T13:15:31.577Z,6.45
2022-08-16T13:18:23.884Z,3.75
2022-08-16T13:20:51.507Z,2.70
2022-08-16T13:23:19.454Z,6.53
2022-08-16T13:25:49.618Z,2.67
2022-08-16T13:28:19.042Z,4.78
2022-08-16T13:30:52.450Z,3.40
2022-08-16T13:33:30.735Z,3.20
2022-08-16T13:36:01.182Z,2.90
2022-08-16T13:38:37.148Z,2.95
2022-08-16T13:41:08.678Z,2.58
2022-08-16T13:43:37.677Z,3.30
2022-08-16T13:46:05.666Z,3.50
2022-08-16T13:48:43.354Z,3.10
2022-08-16T13:51:18.457Z,2.80
2022-08-16T13:53:58.062Z,3.45
2022-08-16T13:56:37.033Z,2.75
2022-08-16T13:59:19.769Z,2.92
2022-08-16T14:01:56.727Z,5.00
2022-08-16T14:04:29.377Z,2.97
2022-08-16T14:06:58.406Z,4.05
2022-08-16T14:09:27.252Z,8.63
2022-08-16T14:14:29.262Z,3.30
2022-08-16T14:16:58.638Z,2.92
2022-08-16T14:19:27.941Z,3.17
2022-08-16T14:22:15.297Z,5.95
2022-08-16T14:24:48.425Z,3.17
2022-08-16T14:27:18.511Z,4.25
2022-08-16T14:29:49.318Z,3.95
2022-08-16T14:32:27.206Z,3.20
2022-08-16T14:35:07.454Z,3.75
2022-08-16T14:37:35.231Z,5.45
2022-08-16T14:40:07.197Z,2.90
2022-08-16T14:42:36.663Z,3.42
2022-08-16T14:45:09.025Z,2.78
2022-08-16T14:47:37.409Z,3.40
2022-08-16T14:50:07.036Z,4.18
2022-08-16T14:52:54.790Z,4.22
2022-08-16T14:55:23.789Z,3.17
2022-08-16T14:57:52.860Z,3.15
2022-08-16T15:00:32.780Z,3.75
2022-08-16T15:03:02.322Z,3.00
2022-08-16T15:07:57.117Z,5.43
2022-08-16T15:10:26.691Z,5.45
2022-08-16T15:12:58.500Z,3.72
2022-08-16T15:15:31.446Z,3.58
2022-08-16T15:17:59.235Z,2.90
2022-08-16T15:20:32.463Z,6.15
2022-08-16T15:23:02.482Z,5.03
2022-08-16T15:25:34.360Z,3.58
2022-08-16T15:28:04.679Z,3.00
2022-08-16T15:30:58.307Z,3.45
2022-08-16T15:33:27.020Z,4.13
2022-08-16T15:35:57.960Z,3.15
2022-08-16T15:38:57.352Z,3.42
2022-08-16T15:41:29.163Z,4.35
2022-08-16T15:44:05.111Z,5.03
2022-08-16T15:46:54.965Z,3.80
2022-08-16T15:49:34.370Z,4.68
2022-08-16T15:52:32.696Z,4.55
2022-08-16T15:55:23.885Z,2.92
2022-08-16T15:57:57.704Z,8.00
2022-08-16T16:00:26.803Z,3.28
2022-08-16T16:03:08.686Z,3.35
2022-08-16T16:05:38.532Z,3.30
2022-08-16T16:08:11.112Z,4.38
2022-08-16T16:10:41.002Z,3.55
2022-08-16T16:13:09.214Z,5.90
2022-08-16T16:15:48.837Z,4.30
2022-08-16T16:18:17.467Z,5.75
2022-08-16T16:20:54.977Z,3.83
2022-08-16T16:23:25.539Z,3.30
2022-08-16T16:25:54.949Z,3.03
2022-08-16T16:29:05.339Z,5.65
2022-08-16T16:31:14.608Z,3.92
2022-08-16T16:33:45.413Z,6.82
2022-08-16T16:36:15.473Z,6.80
2022-08-16T16:38:47.640Z,8.48
2022-08-16T16:41:22.892Z,4.47
2022-08-16T16:43:53.372Z,9.80
2022-08-16T16:46:42.020Z,4.32
2022-08-16T16:51:40.961Z,3.72
2022-08-16T16:54:09.433Z,3.92
2022-08-16T16:56:40.378Z,4.85
2022-08-16T16:59:20.215Z,5.65
2022-08-16T17:01:59.711Z,4.03
2022-08-16T17:04:37.112Z,3.65
2022-08-16T17:07:10.596Z,4.55
2022-08-16T17:09:40.582Z,6.20
2022-08-16T17:12:20.085Z,3.20
2022-08-16T17:14:54.079Z,4.63
2022-08-16T17:17:21.725Z,4.13
2022-08-16T17:19:49.067Z,3.95
2022-08-16T17:22:20.402Z,5.57
2022-08-16T17:24:50.588Z,4.35
2022-08-16T17:27:39.786Z,8.07
2022-08-16T17:32:48.483Z,7.80
2022-08-16T17:35:22.975Z,3.35
2022-08-16T17:37:52.293Z,4.72
2022-08-16T17:40:40.356Z,4.32
2022-08-16T17:43:13.692Z,3.97
2022-08-16T17:45:41.539Z,3.95
2022-08-16T17:48:09.566Z,5.38
2022-08-16T17:50:37.262Z,6.88
2022-08-16T17:53:06.244Z,9.00
2022-08-16T17:55:36.701Z,5.90
2022-08-16T17:58:20.003Z,6.88
2022-08-16T18:00:52.383Z,8.93
2022-08-16T18:04:06.764Z,12.53
2022-08-16T18:06:22.922Z,8.98
2022-08-16T18:08:56.586Z,7.15
2022-08-16T18:11:28.155Z,4.68
2022-08-16T18:13:55.530Z,6.28
2022-08-16T18:16:22.746Z,4.78
2022-08-16T18:18:49.768Z,4.18
2022-08-16T18:21:35.428Z,5.60
2022-08-16T18:24:02.919Z,6.47
2022-08-16T18:26:30.194Z,9.38
2022-08-16T18:28:57.453Z,8.43
2022-08-16T18:31:25.292Z,12.70
2022-08-16T18:33:55.726Z,6.72
2022-08-16T18:36:24.674Z,11.07
2022-08-16T18:38:53.336Z,9.07
2022-08-16T18:41:22.459Z,7.57
2022-08-16T18:44:23.718Z,5.93
2022-08-16T18:46:40.997Z,6.63
2022-08-16T18:49:08.311Z,6.15
2022-08-16T18:51:37.072Z,5.45
2022-08-16T18:54:04.831Z,6.00
2022-08-16T18:56:53.734Z,7.78
2022-08-16T18:59:19.007Z,5.78
2022-08-16T19:01:47.606Z,6.18
2022-08-16T19:04:55.531Z,8.45
2022-08-16T19:07:02.025Z,7.50
2022-08-16T19:09:29.275Z,9.55
2022-08-16T19:11:56.551Z,5.80
2022-08-16T19:14:30.066Z,5.45
2022-08-16T19:16:57.161Z,4.13
2022-08-16T19:19:24.235Z,4.90
2022-08-16T19:21:51.407Z,13.70
2022-08-16T19:24:18.646Z,7.05
2022-08-16T19:26:45.726Z,4.80
2022-08-16T19:29:13.436Z,6.50
2022-08-16T19:31:40.866Z,5.75
2022-08-16T19:34:08.831Z,5.13
2022-08-16T19:36:38.330Z,5.53
2022-08-16T19:39:09.475Z,9.45
2022-08-16T19:41:45.283Z,4.47
2022-08-16T19:44:12.779Z,5.85
2022-08-16T19:46:44.923Z,5.90
2022-08-16T19:49:15.789Z,9.52
2022-08-16T19:51:44.169Z,5.35
2022-08-16T19:54:11.156Z,5.03
2022-08-16T19:56:38.188Z,4.35
2022-08-16T19:59:22.269Z,4.10
2022-08-16T20:01:52.993Z,4.95
2022-08-16T20:04:21.933Z,8.48
2022-08-16T20:06:49.532Z,6.75
2022-08-16T20:09:16.804Z,10.80
2022-08-16T20:11:45.281Z,7.70
2022-08-16T20:14:19.233Z,6.28
2022-08-16T20:16:57.621Z,4.38
2022-08-16T20:19:27.656Z,4.65
2022-08-16T20:24:39.661Z,7.57
2022-08-16T20:27:09.864Z,5.18
2022-08-16T20:29:39.015Z,6.03
2022-08-16T20:32:09.199Z,4.10
2022-08-16T20:34:36.488Z,8.02
2022-08-16T20:37:05.226Z,5.25
2022-08-16T20:39:32.460Z,7.40
2022-08-16T20:42:00.494Z,7.60
2022-08-16T20:44:27.601Z,5.70
2022-08-16T20:46:54.657Z,6.85
2022-08-16T20:49:21.805Z,10.35
2022-08-16T20:51:51.785Z,6.80
2022-08-16T20:54:22.077Z,9.43
2022-08-16T20:56:49.732Z,6.55
2022-08-16T20:59:16.928Z,6.15
2022-08-16T21:01:45.614Z,5.32
2022-08-16T21:04:13.921Z,5.10
2022-08-16T21:06:41.530Z,4.93
2022-08-16T21:09:20.589Z,5.53
2022-08-16T21:11:48.129Z,6.82
2022-08-16T21:14:15.177Z,4.90
2022-08-16T21:16:42.365Z,6.28
2022-08-16T21:19:09.425Z,4.97
2022-08-16T21:21:36.528Z,9.55
2022-08-16T21:24:03.814Z,6.55
2022-08-16T21:26:31.595Z,5.07
2022-08-16T21:28:59.500Z,5.15
2022-08-16T21:31:26.610Z,7.03
2022-08-16T21:33:55.134Z,5.05
2022-08-16T21:36:35.725Z,5.18
2022-08-16T21:39:06.214Z,5.25
2022-08-16T21:41:34.431Z,8.25
2022-08-16T21:44:01.510Z,7.82
2022-08-16T21:46:28.629Z,9.20
2022-08-16T21:48:55.710Z,9.32
2022-08-16T21:51:22.989Z,8.98
2022-08-16T21:53:50.028Z,6.45
2022-08-16T21:56:17.584Z,5.68
2022-08-16T21:58:46.648Z,7.40
2022-08-16T22:01:22.322Z,9.10
2022-08-16T22:04:35.602Z,8.15
2022-08-16T22:06:38.163Z,7.85
2022-08-16T22:09:06.866Z,16.58
2022-08-16T22:11:34.246Z,6.53
2022-08-16T22:14:01.747Z,5.43
2022-08-16T22:16:39.751Z,8.13
2022-08-16T22:19:06.811Z,10.00
2022-08-16T22:21:34.907Z,9.40
2022-08-16T22:24:02.401Z,6.85
2022-08-16T22:26:32.086Z,6.43
2022-08-16T22:29:01.696Z,7.88
2022-08-16T22:31:29.299Z,11.00
2022-08-16T22:33:57.049Z,5.50
2022-08-16T22:36:28.517Z,7.18
2022-08-16T22:39:02.048Z,7.32
2022-08-16T22:41:32.055Z,8.05
2022-08-16T22:44:03.764Z,7.53
2022-08-16T22:46:31.341Z,6.65
2022-08-16T22:48:58.781Z,7.55
2022-08-16T22:51:27.694Z,8.45
2022-08-16T22:53:55.760Z,11.55
2022-08-16T22:56:23.709Z,8.25
2022-08-16T22:58:51.672Z,12.10
2022-08-16T23:01:21.160Z,9.70
2022-08-16T23:03:48.674Z,8.03
2022-08-16T23:06:16.533Z,9.68
2022-08-16T23:08:44.327Z,8.30
2022-08-16T23:11:14.788Z,7.45
2022-08-16T23:13:53.138Z,8.80
2022-08-16T23:16:24.908Z,8.05
2022-08-16T23:19:02.142Z,8.27
2022-08-16T23:21:29.280Z,7.78
2022-08-16T23:23:56.294Z,7.10
2022-08-16T23:26:43.774Z,6.47
2022-08-16T23:29:22.138Z,7.70
2022-08-16T23:31:58.421Z,9.93
2022-08-16T23:34:28.308Z,6.38
2022-08-16T23:36:55.713Z,6.95
2022-08-16T23:39:23.770Z,9.85
2022-08-16T23:41:51.194Z,7.72
2022-08-16T23:44:42.316Z,6.88
2022-08-16T23:47:06.391Z,6.88
2022-08-16T23:49:56.845Z,6.57
2022-08-16T23:52:39.398Z,7.00
2022-08-16T23:55:08.981Z,8.00
2022-08-16T23:57:36.005Z,8.65
